sensor_id;sensor_type;location;lat;lon;timestamp;pressure;altitude;pressure_sealevel;temperature;humidity
13661;BME280;6903;49.480;11.102;2023-06-22T00:00:51;98076.66;;;19.16;100.00
13661;BME280;6903;49.480;11.102;2023-06-22T00:03:18;98077.00;;;19.13;100.00
13661;BME280;6903;49.480;11.102;2023-06-22T00:05:45;98066.66;;;19.10;100.00
13661;BME280;6903;49.480;11.102;2023-06-22T00:08:10;98061.19;;;19.03;100.00
13661;BME280;6903;49.480;11.102;2023-06-22T00:10:35;98065.84;;;19.01;100.00
13661;BME280;6903;49.480;11.102;2023-06-22T00:13:01;98070.69;;;18.98;100.00
13661;BME280;6903;49.480;11.102;2023-06-22T00:15:26;98069.72;;;18.99;100.00
13661;BME280;6903;49.480;11.102;2023-06-22T00:17:51;98069.72;;;18.99;100.00
13661;BME280;6903;49.480;11.102;2023-06-22T00:20:17;98070.69;;;18.98;100.00
13661;BME280;6903;49.480;11.102;2023-06-22T00:22:44;98072.06;;;18.94;100.00
13661;BME280;6903;49.480;11.102;2023-06-22T00:25:09;98083.75;;;18.93;100.00
13661;BME280;6903;49.480;11.102;2023-06-22T00:27:36;98077.41;;;18.94;100.00
13661;BME280;6903;49.480;11.102;2023-06-22T00:30:02;98072.41;;;18.91;100.00
13661;BME280;6903;49.480;11.102;2023-06-22T00:32:28;98092.09;;;18.90;100.00
13661;BME280;6903;49.480;11.102;2023-06-22T00:34:53;98091.47;;;18.88;100.00
13661;BME280;6903;49.480;11.102;2023-06-22T00:37:18;98096.94;;;18.86;100.00
13661;BME280;6903;49.480;11.102;2023-06-22T00:39:44;98099.63;;;18.86;100.00
13661;BME280;6903;49.480;11.102;2023-06-22T00:42:09;98105.31;;;18.83;100.00
13661;BME280;6903;49.480;11.102;2023-06-22T00:44:35;98100.31;;;18.80;100.00
13661;BME280;6903;49.480;11.102;2023-06-22T00:47:01;98109.84;;;18.75;100.00
13661;BME280;6903;49.480;11.102;2023-06-22T00:49:27;98110.19;;;18.72;100.00
13661;BME280;6903;49.480;11.102;2023-06-22T00:51:52;98124.38;;;18.64;100.00
13661;BME280;6903;49.480;11.102;2023-06-22T00:54:18;98122.72;;;18.55;100.00
13661;BME280;6903;49.480;11.102;2023-06-22T00:56:51;98123.84;;;18.53;100.00
13661;BME280;6903;49.480;11.102;2023-06-22T00:59:17;98109.34;;;18.47;100.00
13661;BME280;6903;49.480;11.102;2023-06-22T01:01:43;98104.53;;;18.43;100.00
13661;BME280;6903;49.480;11.102;2023-06-22T01:04:09;98098.19;;;18.44;100.00
13661;BME280;6903;49.480;11.102;2023-06-22T01:06:38;98106.84;;;18.46;100.00
13661;BME280;6903;49.480;11.102;2023-06-22T01:09:29;98116.19;;;18.50;100.00
13661;BME280;6903;49.480;11.102;2023-06-22T01:12:06;98113.84;;;18.55;100.00
13661;BME280;6903;49.480;11.102;2023-06-22T01:14:41;98101.50;;;18.54;100.00
13661;BME280;6903;49.480;11.102;2023-06-22T01:17:09;98098.69;;;18.55;100.00
13661;BME280;6903;49.480;11.102;2023-06-22T01:19:50;98087.81;;;18.57;100.00
13661;BME280;6903;49.480;11.102;2023-06-22T01:22:22;98076.13;;;18.58;100.00
13661;BME280;6903;49.480;11.102;2023-06-22T01:25:10;98059.28;;;18.57;100.00
13661;BME280;6903;49.480;11.102;2023-06-22T01:28:00;98053.28;;;18.55;100.00
13661;BME280;6903;49.480;11.102;2023-06-22T01:30:29;98046.75;;;18.50;100.00
13661;BME280;6903;49.480;11.102;2023-06-22T01:32:58;98037.75;;;18.51;100.00
13661;BME280;6903;49.480;11.102;2023-06-22T01:35:24;98036.25;;;18.48;100.00
13661;BME280;6903;49.480;11.102;2023-06-22T01:37:50;98035.09;;;18.51;100.00
13661;BME280;6903;49.480;11.102;2023-06-22T01:40:16;98037.25;;;18.55;100.00
13661;BME280;6903;49.480;11.102;2023-06-22T01:42:44;98045.59;;;18.60;100.00
13661;BME280;6903;49.480;11.102;2023-06-22T01:45:11;98043.41;;;18.64;100.00
13661;BME280;6903;49.480;11.102;2023-06-22T01:47:37;98050.25;;;18.66;100.00
13661;BME280;6903;49.480;11.102;2023-06-22T01:50:04;98052.41;;;18.71;100.00
13661;BME280;6903;49.480;11.102;2023-06-22T01:52:30;98046.38;;;18.69;100.00
13661;BME280;6903;49.480;11.102;2023-06-22T01:54:55;98049.75;;;18.63;100.00
13661;BME280;6903;49.480;11.102;2023-06-22T01:57:23;98050.25;;;18.58;100.00
13661;BME280;6903;49.480;11.102;2023-06-22T02:00:02;98060.09;;;18.58;100.00
13661;BME280;6903;49.480;11.102;2023-06-22T02:02:33;98046.25;;;18.54;100.00
13661;BME280;6903;49.480;11.102;2023-06-22T02:05:08;98050.44;;;18.49;100.00
13661;BME280;6903;49.480;11.102;2023-06-22T02:07:41;98059.59;;;18.54;100.00
13661;BME280;6903;49.480;11.102;2023-06-22T02:10:09;98059.44;;;18.56;100.00
13661;BME280;6903;49.480;11.102;2023-06-22T02:12:38;98056.75;;;18.56;100.00
13661;BME280;6903;49.480;11.102;2023-06-22T02:15:05;98072.78;;;18.56;100.00
13661;BME280;6903;49.480;11.102;2023-06-22T02:17:31;98078.63;;;18.59;100.00
13661;BME280;6903;49.480;11.102;2023-06-22T02:19:58;98078.44;;;18.61;100.00
13661;BME280;6903;49.480;11.102;2023-06-22T02:22:23;98077.97;;;18.57;100.00
13661;BME280;6903;49.480;11.102;2023-06-22T02:24:49;98075.97;;;18.51;100.00
13661;BME280;6903;49.480;11.102;2023-06-22T02:27:14;98066.13;;;18.44;100.00
13661;BME280;6903;49.480;11.102;2023-06-22T02:29:39;98068.81;;;18.44;100.00
13661;BME280;6903;49.480;11.102;2023-06-22T02:32:05;98078.13;;;18.40;100.00
13661;BME280;6903;49.480;11.102;2023-06-22T02:34:31;98069.13;;;18.41;100.00
13661;BME280;6903;49.480;11.102;2023-06-22T02:36:58;98061.44;;;18.38;100.00
13661;BME280;6903;49.480;11.102;2023-06-22T02:39:26;98065.09;;;18.36;100.00
13661;BME280;6903;49.480;11.102;2023-06-22T02:41:53;98073.94;;;18.37;100.00
13661;BME280;6903;49.480;11.102;2023-06-22T02:44:18;98085.63;;;18.36;100.00
13661;BME280;6903;49.480;11.102;2023-06-22T02:46:44;98115.00;;;18.36;100.00
13661;BME280;6903;49.480;11.102;2023-06-22T02:49:10;98135.34;;;18.37;100.00
13661;BME280;6903;49.480;11.102;2023-06-22T02:51:38;98160.09;;;18.39;100.00
13661;BME280;6903;49.480;11.102;2023-06-22T02:54:05;98177.22;;;18.36;100.00
13661;BME280;6903;49.480;11.102;2023-06-22T02:56:30;98193.63;;;18.42;100.00
13661;BME280;6903;49.480;11.102;2023-06-22T02:58:55;98196.63;;;18.39;100.00
13661;BME280;6903;49.480;11.102;2023-06-22T03:01:27;98188.63;;;18.39;100.00
13661;BME280;6903;49.480;11.102;2023-06-22T03:03:53;98187.31;;;18.43;100.00
13661;BME280;6903;49.480;11.102;2023-06-22T03:06:19;98190.94;;;18.42;100.00
13661;BME280;6903;49.480;11.102;2023-06-22T03:08:48;98188.63;;;18.39;100.00
13661;BME280;6903;49.480;11.102;2023-06-22T03:11:13;98187.25;;;18.34;100.00
13661;BME280;6903;49.480;11.102;2023-06-22T03:13:38;98188.75;;;18.29;100.00
13661;BME280;6903;49.480;11.102;2023-06-22T03:16:04;98183.38;;;18.21;100.00
13661;BME280;6903;49.480;11.102;2023-06-22T03:18:29;98173.03;;;18.18;100.00
13661;BME280;6903;49.480;11.102;2023-06-22T03:20:54;98163.84;;;18.12;100.00
13661;BME280;6903;49.480;11.102;2023-06-22T03:23:20;98165.84;;;18.10;100.00
13661;BME280;6903;49.480;11.102;2023-06-22T03:25:45;98162.19;;;18.11;100.00
13661;BME280;6903;49.480;11.102;2023-06-22T03:28:10;98165.19;;;18.08;100.00
13661;BME280;6903;49.480;11.102;2023-06-22T03:30:36;98156.16;;;18.09;100.00
13661;BME280;6903;49.480;11.102;2023-06-22T03:33:01;98156.16;;;18.09;100.00
13661;BME280;6903;49.480;11.102;2023-06-22T03:35:27;98152.66;;;18.09;100.00
13661;BME280;6903;49.480;11.102;2023-06-22T03:37:52;98141.00;;;18.10;100.00
13661;BME280;6903;49.480;11.102;2023-06-22T03:40:17;98141.50;;;18.13;100.00
13661;BME280;6903;49.480;11.102;2023-06-22T03:42:43;98137.81;;;18.14;100.00
13661;BME280;6903;49.480;11.102;2023-06-22T03:45:08;98129.66;;;18.16;100.00
13661;BME280;6903;49.480;11.102;2023-06-22T03:47:34;98136.50;;;18.18;100.00
13661;BME280;6903;49.480;11.102;2023-06-22T03:49:59;98141.19;;;18.24;100.00
13661;BME280;6903;49.480;11.102;2023-06-22T03:52:25;98127.00;;;18.32;100.00
13661;BME280;6903;49.480;11.102;2023-06-22T03:54:50;98112.66;;;18.33;100.00
13661;BME280;6903;49.480;11.102;2023-06-22T03:57:15;98120.84;;;18.40;100.00
13661;BME280;6903;49.480;11.102;2023-06-22T03:59:41;98127.53;;;18.52;100.00
13661;BME280;6903;49.480;11.102;2023-06-22T04:02:06;98106.00;;;18.61;100.00
13661;BME280;6903;49.480;11.102;2023-06-22T04:04:31;98105.50;;;18.74;100.00
13661;BME280;6903;49.480;11.102;2023-06-22T04:06:57;98109.81;;;18.91;100.00
13661;BME280;6903;49.480;11.102;2023-06-22T04:09:22;98095.06;;;19.03;100.00
13661;BME280;6903;49.480;11.102;2023-06-22T04:11:47;98091.22;;;19.13;100.00
13661;BME280;6903;49.480;11.102;2023-06-22T04:14:13;98088.66;;;19.28;100.00
13661;BME280;6903;49.480;11.102;2023-06-22T04:16:38;98075.75;;;19.39;100.00
13661;BME280;6903;49.480;11.102;2023-06-22T04:19:03;98051.69;;;19.39;100.00
13661;BME280;6903;49.480;11.102;2023-06-22T04:21:29;98051.38;;;19.42;100.00
13661;BME280;6903;49.480;11.102;2023-06-22T04:23:54;98072.03;;;19.56;100.00
13661;BME280;6903;49.480;11.102;2023-06-22T04:26:20;98061.72;;;19.76;100.00
13661;BME280;6903;49.480;11.102;2023-06-22T04:28:49;98045.59;;;19.84;100.00
13661;BME280;6903;49.480;11.102;2023-06-22T04:31:20;98040.56;;;19.89;100.00
13661;BME280;6903;49.480;11.102;2023-06-22T04:33:45;98045.78;;;20.05;100.00
13661;BME280;6903;49.480;11.102;2023-06-22T04:36:11;98051.88;;;20.22;100.00
13661;BME280;6903;49.480;11.102;2023-06-22T04:38:39;98032.97;;;20.38;100.00
13661;BME280;6903;49.480;11.102;2023-06-22T04:41:04;98016.28;;;20.36;100.00
13661;BME280;6903;49.480;11.102;2023-06-22T04:43:30;98009.81;;;20.45;100.00
13661;BME280;6903;49.480;11.102;2023-06-22T04:45:58;98004.09;;;20.48;100.00
13661;BME280;6903;49.480;11.102;2023-06-22T04:48:29;98007.34;;;20.58;100.00
13661;BME280;6903;49.480;11.102;2023-06-22T04:50:58;98011.25;;;20.55;100.00
13661;BME280;6903;49.480;11.102;2023-06-22T04:53:28;98015.59;;;20.71;100.00
13661;BME280;6903;49.480;11.102;2023-06-22T04:55:55;98004.59;;;20.80;100.00
13661;BME280;6903;49.480;11.102;2023-06-22T04:58:20;97995.34;;;20.83;100.00
13661;BME280;6903;49.480;11.102;2023-06-22T05:00:46;97989.88;;;20.91;100.00
13661;BME280;6903;49.480;11.102;2023-06-22T05:03:12;97994.75;;;21.10;100.00
13661;BME280;6903;49.480;11.102;2023-06-22T05:05:37;97998.03;;;21.27;100.00
13661;BME280;6903;49.480;11.102;2023-06-22T05:08:03;98004.13;;;21.35;100.00
13661;BME280;6903;49.480;11.102;2023-06-22T05:10:32;98002.16;;;21.44;100.00
13661;BME280;6903;49.480;11.102;2023-06-22T05:12:57;97984.94;;;21.53;100.00
13661;BME280;6903;49.480;11.102;2023-06-22T05:15:22;97989.66;;;21.51;100.00
13661;BME280;6903;49.480;11.102;2023-06-22T05:17:51;97988.41;;;21.68;100.00
13661;BME280;6903;49.480;11.102;2023-06-22T05:20:17;97993.00;;;21.74;100.00
13661;BME280;6903;49.480;11.102;2023-06-22T05:22:43;97995.97;;;21.79;100.00
13661;BME280;6903;49.480;11.102;2023-06-22T05:25:09;97985.06;;;22.01;100.00
13661;BME280;6903;49.480;11.102;2023-06-22T05:27:35;97981.31;;;22.02;100.00
13661;BME280;6903;49.480;11.102;2023-06-22T05:30:05;97983.84;;;22.31;100.00
13661;BME280;6903;49.480;11.102;2023-06-22T05:32:31;97989.38;;;22.51;100.00
13661;BME280;6903;49.480;11.102;2023-06-22T05:34:57;97984.97;;;22.65;100.00
13661;BME280;6903;49.480;11.102;2023-06-22T05:37:22;97984.09;;;22.92;100.00
13661;BME280;6903;49.480;11.102;2023-06-22T05:39:48;97987.91;;;23.10;100.00
13661;BME280;6903;49.480;11.102;2023-06-22T05:42:13;97983.81;;;23.14;100.00
13661;BME280;6903;49.480;11.102;2023-06-22T05:44:38;97982.91;;;23.41;100.00
13661;BME280;6903;49.480;11.102;2023-06-22T05:47:05;97984.03;;;23.66;100.00
13661;BME280;6903;49.480;11.102;2023-06-22T05:49:31;97986.81;;;23.99;100.00
13661;BME280;6903;49.480;11.102;2023-06-22T05:51:58;97973.16;;;24.27;100.00
13661;BME280;6903;49.480;11.102;2023-06-22T05:54:24;97975.44;;;24.49;100.00
13661;BME280;6903;49.480;11.102;2023-06-22T05:56:49;97967.97;;;24.71;100.00
13661;BME280;6903;49.480;11.102;2023-06-22T05:59:15;97964.19;;;24.91;100.00
13661;BME280;6903;49.480;11.102;2023-06-22T06:01:40;97966.03;;;24.97;100.00
13661;BME280;6903;49.480;11.102;2023-06-22T06:04:06;97960.97;;;25.21;100.00
13661;BME280;6903;49.480;11.102;2023-06-22T06:06:33;97968.00;;;25.28;100.00
13661;BME280;6903;49.480;11.102;2023-06-22T06:09:00;97970.69;;;25.28;100.00
13661;BME280;6903;49.480;11.102;2023-06-22T06:11:25;97959.91;;;25.28;100.00
13661;BME280;6903;49.480;11.102;2023-06-22T06:13:51;97953.38;;;25.04;100.00
13661;BME280;6903;49.480;11.102;2023-06-22T06:16:16;97956.03;;;25.11;100.00
13661;BME280;6903;49.480;11.102;2023-06-22T06:18:41;97961.38;;;25.24;100.00
13661;BME280;6903;49.480;11.102;2023-06-22T06:21:07;97952.66;;;25.35;100.00
13661;BME280;6903;49.480;11.102;2023-06-22T06:23:32;97949.25;;;25.46;100.00
13661;BME280;6903;49.480;11.102;2023-06-22T06:25:57;97957.00;;;26.05;100.00
13661;BME280;6903;49.480;11.102;2023-06-22T06:28:24;97949.03;;;26.16;100.00
13661;BME280;6903;49.480;11.102;2023-06-22T06:30:50;97958.03;;;26.10;100.00
13661;BME280;6903;49.480;11.102;2023-06-22T06:33:17;97951.34;;;26.13;100.00
13661;BME280;6903;49.480;11.102;2023-06-22T06:35:42;97954.34;;;26.29;100.00
13661;BME280;6903;49.480;11.102;2023-06-22T06:38:07;97942.44;;;26.30;100.00
13661;BME280;6903;49.480;11.102;2023-06-22T06:40:33;97935.91;;;26.44;100.00
13661;BME280;6903;49.480;11.102;2023-06-22T06:42:58;97937.22;;;26.35;100.00
13661;BME280;6903;49.480;11.102;2023-06-22T06:45:23;97940.25;;;26.70;100.00
13661;BME280;6903;49.480;11.102;2023-06-22T06:47:50;97939.00;;;27.27;100.00
13661;BME280;6903;49.480;11.102;2023-06-22T06:50:16;97937.94;;;27.28;100.00
13661;BME280;6903;49.480;11.102;2023-06-22T06:52:42;97935.31;;;27.39;100.00
13661;BME280;6903;49.480;11.102;2023-06-22T06:55:08;97935.00;;;27.29;100.00
13661;BME280;6903;49.480;11.102;2023-06-22T06:57:36;97926.44;;;27.62;100.00
13661;BME280;6903;49.480;11.102;2023-06-22T07:00:05;97926.69;;;28.02;100.00
13661;BME280;6903;49.480;11.102;2023-06-22T07:02:34;97914.78;;;27.91;100.00
13661;BME280;6903;49.480;11.102;2023-06-22T07:05:00;97914.72;;;27.79;100.00
13661;BME280;6903;49.480;11.102;2023-06-22T07:07:25;97911.38;;;27.96;100.00
13661;BME280;6903;49.480;11.102;2023-06-22T07:09:50;97904.78;;;28.03;100.00
13661;BME280;6903;49.480;11.102;2023-06-22T07:12:16;97911.53;;;28.12;100.00
13661;BME280;6903;49.480;11.102;2023-06-22T07:14:41;97910.19;;;28.03;100.00
13661;BME280;6903;49.480;11.102;2023-06-22T07:17:06;97913.63;;;27.99;100.00
13661;BME280;6903;49.480;11.102;2023-06-22T07:19:33;97906.66;;;27.91;100.00
13661;BME280;6903;49.480;11.102;2023-06-22T07:21:58;97903.50;;;28.29;100.00
13661;BME280;6903;49.480;11.102;2023-06-22T07:24:24;97905.66;;;28.61;100.00
13661;BME280;6903;49.480;11.102;2023-06-22T07:26:49;97903.44;;;28.70;100.00
13661;BME280;6903;49.480;11.102;2023-06-22T07:29:19;97905.31;;;28.69;100.00
13661;BME280;6903;49.480;11.102;2023-06-22T07:31:50;97902.94;;;28.84;100.00
13661;BME280;6903;49.480;11.102;2023-06-22T07:34:16;97891.22;;;28.95;100.00
13661;BME280;6903;49.480;11.102;2023-06-22T07:36:42;97898.53;;;29.18;100.00
13661;BME280;6903;49.480;11.102;2023-06-22T07:39:08;97899.91;;;29.60;100.00
13661;BME280;6903;49.480;11.102;2023-06-22T07:41:33;97890.00;;;29.82;100.00
13661;BME280;6903;49.480;11.102;2023-06-22T07:43:58;97891.41;;;29.85;100.00
13661;BME280;6903;49.480;11.102;2023-06-22T07:46:24;97884.72;;;29.76;100.00
13661;BME280;6903;49.480;11.102;2023-06-22T07:48:49;97889.16;;;29.82;100.00
13661;BME280;6903;49.480;11.102;2023-06-22T07:51:15;97893.34;;;30.34;100.00
13661;BME280;6903;49.480;11.102;2023-06-22T07:53:41;97888.16;;;30.32;100.00
13661;BME280;6903;49.480;11.102;2023-06-22T07:56:06;97891.25;;;29.91;100.00
13661;BME280;6903;49.480;11.102;2023-06-22T07:58:32;97888.75;;;29.90;100.00
13661;BME280;6903;49.480;11.102;2023-06-22T08:00:58;97884.47;;;30.22;97.88
13661;BME280;6903;49.480;11.102;2023-06-22T08:03:24;97878.19;;;30.38;95.14
13661;BME280;6903;49.480;11.102;2023-06-22T08:05:49;97890.09;;;30.70;92.51
13661;BME280;6903;49.480;11.102;2023-06-22T08:08:15;97890.69;;;30.39;89.27
13661;BME280;6903;49.480;11.102;2023-06-22T08:10:40;97887.38;;;30.20;88.51
13661;BME280;6903;49.480;11.102;2023-06-22T08:13:06;97892.38;;;30.23;89.26
13661;BME280;6903;49.480;11.102;2023-06-22T08:15:31;97885.50;;;30.54;87.39
13661;BME280;6903;49.480;11.102;2023-06-22T08:17:56;97886.28;;;30.55;88.57
13661;BME280;6903;49.480;11.102;2023-06-22T08:20:23;97882.56;;;30.77;89.34
13661;BME280;6903;49.480;11.102;2023-06-22T08:22:48;97873.72;;;31.08;86.62
13661;BME280;6903;49.480;11.102;2023-06-22T08:25:13;97884.66;;;31.56;82.97
13661;BME280;6903;49.480;11.102;2023-06-22T08:27:39;97875.56;;;31.72;79.73
13661;BME280;6903;49.480;11.102;2023-06-22T08:30:06;97872.13;;;31.55;80.49
13661;BME280;6903;49.480;11.102;2023-06-22T08:32:31;97872.00;;;31.24;80.32
13661;BME280;6903;49.480;11.102;2023-06-22T08:34:57;97864.34;;;31.69;79.09
13661;BME280;6903;49.480;11.102;2023-06-22T08:37:23;97867.91;;;32.33;74.61
13661;BME280;6903;49.480;11.102;2023-06-22T08:39:56;97871.41;;;32.23;73.35
13661;BME280;6903;49.480;11.102;2023-06-22T08:42:22;97886.94;;;32.23;71.21
13661;BME280;6903;49.480;11.102;2023-06-22T08:44:49;97870.50;;;32.44;70.06
13661;BME280;6903;49.480;11.102;2023-06-22T08:47:14;97892.41;;;33.01;67.39
13661;BME280;6903;49.480;11.102;2023-06-22T08:49:39;97884.19;;;32.91;68.08
13661;BME280;6903;49.480;11.102;2023-06-22T08:52:05;97877.09;;;33.00;67.67
13661;BME280;6903;49.480;11.102;2023-06-22T08:54:30;97871.06;;;33.70;65.25
13661;BME280;6903;49.480;11.102;2023-06-22T08:56:58;97868.34;;;33.75;60.76
13661;BME280;6903;49.480;11.102;2023-06-22T08:59:23;97856.53;;;33.49;58.49
13661;BME280;6903;49.480;11.102;2023-06-22T09:01:48;97863.41;;;33.82;56.36
13661;BME280;6903;49.480;11.102;2023-06-22T09:04:14;97859.72;;;33.36;56.71
13661;BME280;6903;49.480;11.102;2023-06-22T09:06:40;97854.19;;;33.11;57.96
13661;BME280;6903;49.480;11.102;2023-06-22T09:09:11;97864.19;;;33.42;57.20
13661;BME280;6903;49.480;11.102;2023-06-22T09:11:37;97853.28;;;33.52;56.95
13661;BME280;6903;49.480;11.102;2023-06-22T09:14:02;97847.56;;;34.04;55.34
13661;BME280;6903;49.480;11.102;2023-06-22T09:16:29;97841.78;;;33.70;55.82
13661;BME280;6903;49.480;11.102;2023-06-22T09:18:54;97846.16;;;33.56;55.60
13661;BME280;6903;49.480;11.102;2023-06-22T09:21:19;97839.44;;;33.17;55.84
13661;BME280;6903;49.480;11.102;2023-06-22T09:23:44;97831.59;;;33.36;56.36
13661;BME280;6903;49.480;11.102;2023-06-22T09:26:12;97811.31;;;33.27;56.43
13661;BME280;6903;49.480;11.102;2023-06-22T09:28:37;97810.53;;;33.26;55.17
13661;BME280;6903;49.480;11.102;2023-06-22T09:31:03;97806.72;;;33.37;55.10
13661;BME280;6903;49.480;11.102;2023-06-22T09:33:28;97808.06;;;33.40;54.72
13661;BME280;6903;49.480;11.102;2023-06-22T09:35:53;97795.56;;;33.64;54.25
13661;BME280;6903;49.480;11.102;2023-06-22T09:38:18;97808.72;;;33.62;53.67
13661;BME280;6903;49.480;11.102;2023-06-22T09:40:44;97795.84;;;33.47;53.97
13661;BME280;6903;49.480;11.102;2023-06-22T09:43:11;97797.13;;;33.40;53.93
13661;BME280;6903;49.480;11.102;2023-06-22T09:45:36;97796.13;;;33.86;52.77
13661;BME280;6903;49.480;11.102;2023-06-22T09:48:02;97799.13;;;34.29;51.72
13661;BME280;6903;49.480;11.102;2023-06-22T09:50:27;97784.72;;;34.93;49.54
13661;BME280;6903;49.480;11.102;2023-06-22T09:52:52;97786.75;;;35.26;47.53
13661;BME280;6903;49.480;11.102;2023-06-22T09:55:23;97782.66;;;35.18;47.94
13661;BME280;6903;49.480;11.102;2023-06-22T09:57:48;97783.66;;;34.79;47.71
13661;BME280;6903;49.480;11.102;2023-06-22T10:00:16;97773.94;;;34.27;48.72
13661;BME280;6903;49.480;11.102;2023-06-22T10:02:42;97775.06;;;34.21;48.38
13661;BME280;6903;49.480;11.102;2023-06-22T10:05:07;97769.81;;;34.20;49.60
13661;BME280;6903;49.480;11.102;2023-06-22T10:07:33;97766.22;;;34.50;50.25
13661;BME280;6903;49.480;11.102;2023-06-22T10:09:58;97767.34;;;34.44;49.92
13661;BME280;6903;49.480;11.102;2023-06-22T10:12:25;97761.88;;;34.49;49.31
13661;BME280;6903;49.480;11.102;2023-06-22T10:14:50;97761.75;;;34.74;48.07
13661;BME280;6903;49.480;11.102;2023-06-22T10:17:16;97757.88;;;34.80;47.81
13661;BME280;6903;49.480;11.102;2023-06-22T10:19:41;97749.81;;;34.40;48.91
13661;BME280;6903;49.480;11.102;2023-06-22T10:22:07;97774.09;;;34.76;47.75
13661;BME280;6903;49.480;11.102;2023-06-22T10:24:32;97770.31;;;34.57;47.80
13661;BME280;6903;49.480;11.102;2023-06-22T10:26:57;97782.69;;;34.40;48.42
13661;BME280;6903;49.480;11.102;2023-06-22T10:29:23;97775.34;;;34.05;49.79
13661;BME280;6903;49.480;11.102;2023-06-22T10:31:48;97781.38;;;34.02;49.70
13661;BME280;6903;49.480;11.102;2023-06-22T10:34:13;97781.03;;;34.38;49.35
13661;BME280;6903;49.480;11.102;2023-06-22T10:36:39;97781.22;;;34.72;48.13
13661;BME280;6903;49.480;11.102;2023-06-22T10:39:04;97782.53;;;34.95;46.56
13661;BME280;6903;49.480;11.102;2023-06-22T10:41:31;97792.44;;;34.76;46.84
13661;BME280;6903;49.480;11.102;2023-06-22T10:43:56;97790.78;;;35.43;46.65
13661;BME280;6903;49.480;11.102;2023-06-22T10:46:21;97778.47;;;36.08;43.83
13661;BME280;6903;49.480;11.102;2023-06-22T10:48:47;97800.41;;;36.42;42.97
13661;BME280;6903;49.480;11.102;2023-06-22T10:51:12;97794.69;;;35.71;44.54
13661;BME280;6903;49.480;11.102;2023-06-22T10:53:37;97789.78;;;36.30;44.11
13661;BME280;6903;49.480;11.102;2023-06-22T10:56:03;97793.44;;;36.73;43.65
13661;BME280;6903;49.480;11.102;2023-06-22T10:58:28;97783.63;;;37.33;42.67
13661;BME280;6903;49.480;11.102;2023-06-22T11:00:53;97785.66;;;37.64;40.54
13661;BME280;6903;49.480;11.102;2023-06-22T11:03:19;97778.13;;;37.33;40.68
13661;BME280;6903;49.480;11.102;2023-06-22T11:05:44;97772.66;;;36.90;40.36
13661;BME280;6903;49.480;11.102;2023-06-22T11:08:09;97772.53;;;36.53;40.86
13661;BME280;6903;49.480;11.102;2023-06-22T11:10:35;97765.03;;;36.59;41.47
13661;BME280;6903;49.480;11.102;2023-06-22T11:13:00;97757.38;;;36.79;41.05
13661;BME280;6903;49.480;11.102;2023-06-22T11:15:25;97752.59;;;36.66;41.08
13661;BME280;6903;49.480;11.102;2023-06-22T11:17:51;97748.44;;;36.69;40.50
13661;BME280;6903;49.480;11.102;2023-06-22T11:20:16;97733.47;;;36.80;39.87
13661;BME280;6903;49.480;11.102;2023-06-22T11:22:41;97733.69;;;37.26;39.10
13661;BME280;6903;49.480;11.102;2023-06-22T11:25:07;97735.56;;;37.81;38.73
13661;BME280;6903;49.480;11.102;2023-06-22T11:27:33;97737.38;;;37.72;38.87
13661;BME280;6903;49.480;11.102;2023-06-22T11:29:58;97728.69;;;37.97;38.45
13661;BME280;6903;49.480;11.102;2023-06-22T11:32:24;97729.06;;;38.22;37.43
13661;BME280;6903;49.480;11.102;2023-06-22T11:34:49;97718.75;;;38.55;36.84
13661;BME280;6903;49.480;11.102;2023-06-22T11:37:15;97721.41;;;38.47;36.92
13661;BME280;6903;49.480;11.102;2023-06-22T11:39:40;97728.94;;;37.82;37.49
13661;BME280;6903;49.480;11.102;2023-06-22T11:42:06;97718.13;;;37.35;38.36
13661;BME280;6903;49.480;11.102;2023-06-22T11:44:31;97713.38;;;37.40;38.37
13661;BME280;6903;49.480;11.102;2023-06-22T11:46:57;97719.91;;;37.63;38.67
13661;BME280;6903;49.480;11.102;2023-06-22T11:49:22;97707.16;;;37.67;37.84
13661;BME280;6903;49.480;11.102;2023-06-22T11:51:47;97699.28;;;37.92;38.02
13661;BME280;6903;49.480;11.102;2023-06-22T11:54:13;97691.53;;;37.94;37.52
13661;BME280;6903;49.480;11.102;2023-06-22T11:56:38;97698.28;;;38.02;37.30
13661;BME280;6903;49.480;11.102;2023-06-22T11:59:03;97676.06;;;37.66;37.04
13661;BME280;6903;49.480;11.102;2023-06-22T12:01:28;97679.00;;;37.38;37.20
13661;BME280;6903;49.480;11.102;2023-06-22T12:03:54;97674.41;;;36.96;37.51
13661;BME280;6903;49.480;11.102;2023-06-22T12:06:19;97688.03;;;36.64;38.52
13661;BME280;6903;49.480;11.102;2023-06-22T12:08:44;97672.38;;;36.64;38.39
13661;BME280;6903;49.480;11.102;2023-06-22T12:11:10;97672.63;;;36.86;37.90
13661;BME280;6903;49.480;11.102;2023-06-22T12:13:35;97670.56;;;37.16;37.37
13661;BME280;6903;49.480;11.102;2023-06-22T12:16:00;97668.22;;;37.41;37.54
13661;BME280;6903;49.480;11.102;2023-06-22T12:18:26;97658.69;;;37.71;37.63
13661;BME280;6903;49.480;11.102;2023-06-22T12:20:51;97657.06;;;37.83;37.51
13661;BME280;6903;49.480;11.102;2023-06-22T12:23:16;97652.56;;;37.23;37.79
13661;BME280;6903;49.480;11.102;2023-06-22T12:25:42;97643.28;;;36.82;38.17
13661;BME280;6903;49.480;11.102;2023-06-22T12:28:07;97632.56;;;37.18;37.42
13661;BME280;6903;49.480;11.102;2023-06-22T12:30:33;97633.59;;;37.22;36.88
13661;BME280;6903;49.480;11.102;2023-06-22T12:32:58;97610.38;;;37.46;36.67
13661;BME280;6903;49.480;11.102;2023-06-22T12:35:24;97607.19;;;37.85;36.30
13661;BME280;6903;49.480;11.102;2023-06-22T12:37:49;97618.16;;;37.58;36.38
13661;BME280;6903;49.480;11.102;2023-06-22T12:40:14;97612.00;;;37.47;35.90
13661;BME280;6903;49.480;11.102;2023-06-22T12:42:40;97606.38;;;37.84;36.19
13661;BME280;6903;49.480;11.102;2023-06-22T12:45:06;97597.13;;;38.84;35.19
13661;BME280;6903;49.480;11.102;2023-06-22T12:47:31;97602.38;;;39.82;33.63